CDT,Max TemperatureF,Mean TemperatureF,Min TemperatureF,Max Dew PointF,MeanDew PointF,Min DewpointF,Max Humidity, Mean Humidity, Min Humidity, Max Sea Level PressureIn, Mean Sea Level PressureIn, Min Sea Level PressureIn, Max VisibilityMiles, Mean VisibilityMiles, Min VisibilityMiles, Max Wind SpeedMPH, Mean Wind SpeedMPH, Max Gust SpeedMPH,PrecipitationIn, CloudCover, Events, WindDirDegrees
2013-10-1,80,64,48,52,43,32,86,53,19,29.98,29.88,29.69,10,10,10,17,6,23,0.00,0,,339
2013-10-2,88,67,45,63,55,42,93,68,42,29.99,29.88,29.79,10,10,6,23,9,30,0.36,4,Rain-Thunderstorm,190
2013-10-3,73,65,56,63,60,55,100,84,68,29.85,29.80,29.78,10,9,6,24,8,29,0.31,5,Rain-Thunderstorm,343
2013-10-4,76,62,48,67,60,42,97,82,67,29.84,29.75,29.58,10,10,5,25,12,32,0.20,7,Rain-Thunderstorm,83
2013-10-5,52,46,40,40,35,32,73,62,50,29.88,29.81,29.75,10,10,10,23,15,31,T,6,Rain,227
2013-10-6,57,49,40,48,42,35,96,73,50,30.02,29.85,29.74,10,9,2,24,12,32,0.08,7,Rain,316
2013-10-7,77,57,37,46,41,37,92,60,27,30.06,30.00,29.95,10,10,10,13,5,20,0.00,0,,234
2013-10-8,80,64,47,46,44,42,83,54,22,29.94,29.89,29.82,10,10,10,29,16,36,0.00,0,,155
2013-10-9,80,65,49,51,48,45,86,57,29,29.98,29.94,29.89,10,10,10,22,11,29,0.00,0,,146
2013-10-10,83,69,55,53,51,48,80,59,30,29.96,29.87,29.75,10,10,10,29,15,35,0.00,0,,146
2013-10-11,81,66,50,58,51,42,78,52,26,29.86,29.67,29.54,10,10,10,33,17,44,T,2,Rain,188
2013-10-12,66,51,35,41,33,27,76,50,24,30.30,30.09,29.87,10,10,10,24,10,31,0.00,0,,283
2013-10-13,69,49,29,37,33,29,92,59,26,30.44,30.36,30.30,10,10,10,15,6,23,0.01,0,,136
2013-10-14,59,52,45,57,47,39,100,93,86,30.32,29.96,29.68,10,7,2,30,14,37,2.31,8,Rain-Thunderstorm,112
2013-10-15,56,50,43,53,43,39,93,87,80,30.05,29.87,29.69,10,10,10,26,19,33,T,8,Rain,288
2013-10-16,56,45,33,40,37,32,92,68,43,30.09,30.03,29.97,10,10,10,18,7,24,0.00,3,,317
2013-10-17,58,44,30,43,36,29,100,79,57,30.06,29.96,29.89,10,10,5,29,11,36,0.00,4,,323
2013-10-18,55,43,31,38,31,24,92,62,32,30.13,30.06,29.99,10,10,7,18,8,23,0.01,4,Rain,296
2013-10-19,61,49,36,37,34,31,85,60,35,29.97,29.87,29.81,10,10,10,25,9,31,0.00,5,,279
2013-10-20,63,50,37,41,37,31,92,69,46,30.03,29.83,29.70,10,10,10,29,13,37,0.00,6,,335
2013-10-21,52,40,28,41,31,26,92,67,41,30.11,30.04,29.95,10,10,10,15,5,22,0.02,6,Rain,278
2013-10-22,45,39,32,43,36,32,92,83,73,30.15,30.02,29.88,10,10,5,15,7,17,0.18,8,Rain,358
2013-10-23,43,36,29,39,35,29,100,82,64,30.25,30.13,30.07,10,9,2,18,6,24,0.11,7,Rain,318
2013-10-24,50,39,27,31,28,26,92,67,42,30.41,30.36,30.26,10,10,10,18,7,23,0.00,1,,308
2013-10-25,62,43,24,36,31,21,92,64,36,30.42,30.22,30.00,10,10,10,29,12,32,0.00,2,,189
2013-10-26,51,38,25,38,31,24,85,62,39,30.25,30.16,30.00,10,10,10,21,10,28,0.00,0,,322
2013-10-27,64,42,25,37,28,23,92,74,29,30.13,29.95,29.80,10,10,10,14,7,,0.00,0,,138
2013-10-28,49,43,37,36,33,31,82,68,52,30.29,30.21,30.04,10,10,10,21,12,26,0.10,3,Rain,65
2013-10-29,48,44,39,47,43,36,100,89,77,30.24,30.07,29.99,10,5,1,15,8,18,0.09,8,Rain,69
2013-10-30,46,41,36,46,42,38,100,93,86,30.04,29.89,29.80,10,4,0,16,8,21,0.07,8,Fog-Rain,319
2013-10-31,56,44,31,42,36,31,100,77,54,29.77,29.62,29.50,10,8,0,22,6,29,0.00,2,Fog,274